sensor_id;sensor_type;location;lat;lon;timestamp;P1;durP1;ratioP1;P2;durP2;ratioP2
70715;SDS011;59053;50.832;12.882;2022-11-20T00:01:18;48.70;;;16.58;;
70715;SDS011;59053;50.832;12.882;2022-11-20T00:03:46;50.08;;;15.50;;
70715;SDS011;59053;50.832;12.882;2022-11-20T00:09:04;49.47;;;15.95;;
70715;SDS011;59053;50.832;12.882;2022-11-20T00:11:30;45.03;;;15.75;;
70715;SDS011;59053;50.832;12.882;2022-11-20T00:16:49;41.37;;;14.77;;
70715;SDS011;59053;50.832;12.882;2022-11-20T00:19:15;44.55;;;14.40;;
70715;SDS011;59053;50.832;12.882;2022-11-20T00:21:44;45.95;;;14.13;;
70715;SDS011;59053;50.832;12.882;2022-11-20T00:24:09;45.23;;;14.33;;
70715;SDS011;59053;50.832;12.882;2022-11-20T00:26:38;46.78;;;15.05;;
70715;SDS011;59053;50.832;12.882;2022-11-20T00:29:03;44.53;;;14.67;;
70715;SDS011;59053;50.832;12.882;2022-11-20T00:31:30;45.60;;;13.80;;
70715;SDS011;59053;50.832;12.882;2022-11-20T00:33:55;42.72;;;13.52;;
70715;SDS011;59053;50.832;12.882;2022-11-20T00:39:25;43.50;;;14.13;;
70715;SDS011;59053;50.832;12.882;2022-11-20T00:44:42;45.05;;;13.68;;
70715;SDS011;59053;50.832;12.882;2022-11-20T00:47:08;45.23;;;14.10;;
70715;SDS011;59053;50.832;12.882;2022-11-20T00:49:33;42.37;;;13.33;;
70715;SDS011;59053;50.832;12.882;2022-11-20T00:51:58;49.37;;;15.00;;
70715;SDS011;59053;50.832;12.882;2022-11-20T00:54:25;42.77;;;13.23;;
70715;SDS011;59053;50.832;12.882;2022-11-20T00:56:52;39.33;;;13.05;;
70715;SDS011;59053;50.832;12.882;2022-11-20T00:59:17;45.40;;;13.98;;
70715;SDS011;59053;50.832;12.882;2022-11-20T01:01:42;43.13;;;13.27;;
70715;SDS011;59053;50.832;12.882;2022-11-20T01:04:08;37.90;;;12.80;;
70715;SDS011;59053;50.832;12.882;2022-11-20T01:06:34;48.03;;;14.43;;
70715;SDS011;59053;50.832;12.882;2022-11-20T01:09:02;43.40;;;13.57;;
70715;SDS011;59053;50.832;12.882;2022-11-20T01:11:29;43.63;;;14.80;;
70715;SDS011;59053;50.832;12.882;2022-11-20T01:13:57;44.53;;;13.57;;
70715;SDS011;59053;50.832;12.882;2022-11-20T01:18:49;48.40;;;13.47;;
70715;SDS011;59053;50.832;12.882;2022-11-20T01:21:19;42.58;;;13.60;;
70715;SDS011;59053;50.832;12.882;2022-11-20T01:23:45;45.08;;;14.05;;
70715;SDS011;59053;50.832;12.882;2022-11-20T01:26:12;39.83;;;12.40;;
70715;SDS011;59053;50.832;12.882;2022-11-20T01:28:38;41.72;;;12.25;;
70715;SDS011;59053;50.832;12.882;2022-11-20T01:31:13;44.53;;;15.02;;
70715;SDS011;59053;50.832;12.882;2022-11-20T01:33:39;47.65;;;14.10;;
70715;SDS011;59053;50.832;12.882;2022-11-20T01:36:06;47.72;;;14.05;;
70715;SDS011;59053;50.832;12.882;2022-11-20T01:38:31;45.93;;;13.70;;
70715;SDS011;59053;50.832;12.882;2022-11-20T01:40:56;48.07;;;13.37;;
70715;SDS011;59053;50.832;12.882;2022-11-20T01:43:22;46.30;;;14.68;;
70715;SDS011;59053;50.832;12.882;2022-11-20T01:48:13;42.43;;;12.73;;
70715;SDS011;59053;50.832;12.882;2022-11-20T01:50:39;44.78;;;12.23;;
70715;SDS011;59053;50.832;12.882;2022-11-20T01:53:06;43.05;;;13.45;;
70715;SDS011;59053;50.832;12.882;2022-11-20T01:55:33;47.67;;;13.98;;
70715;SDS011;59053;50.832;12.882;2022-11-20T01:57:59;50.73;;;13.47;;
70715;SDS011;59053;50.832;12.882;2022-11-20T02:00:26;32.95;;;10.63;;
70715;SDS011;59053;50.832;12.882;2022-11-20T02:02:53;37.70;;;11.63;;
70715;SDS011;59053;50.832;12.882;2022-11-20T02:05:22;37.40;;;11.33;;
70715;SDS011;59053;50.832;12.882;2022-11-20T02:07:47;37.67;;;11.57;;
70715;SDS011;59053;50.832;12.882;2022-11-20T02:10:13;34.60;;;11.03;;
70715;SDS011;59053;50.832;12.882;2022-11-20T02:12:38;32.67;;;11.25;;
70715;SDS011;59053;50.832;12.882;2022-11-20T02:15:22;42.53;;;12.63;;
70715;SDS011;59053;50.832;12.882;2022-11-20T02:17:48;38.47;;;11.93;;
70715;SDS011;59053;50.832;12.882;2022-11-20T02:20:13;34.13;;;11.55;;
70715;SDS011;59053;50.832;12.882;2022-11-20T02:22:42;35.53;;;11.77;;
70715;SDS011;59053;50.832;12.882;2022-11-20T02:25:09;33.45;;;10.88;;
70715;SDS011;59053;50.832;12.882;2022-11-20T02:27:35;34.77;;;11.07;;
70715;SDS011;59053;50.832;12.882;2022-11-20T02:30:01;41.15;;;11.95;;
70715;SDS011;59053;50.832;12.882;2022-11-20T02:32:29;34.43;;;12.00;;
70715;SDS011;59053;50.832;12.882;2022-11-20T02:34:56;34.60;;;10.60;;
70715;SDS011;59053;50.832;12.882;2022-11-20T02:37:21;37.95;;;12.30;;
70715;SDS011;59053;50.832;12.882;2022-11-20T02:39:47;34.67;;;11.20;;
70715;SDS011;59053;50.832;12.882;2022-11-20T02:42:13;28.23;;;9.48;;
70715;SDS011;59053;50.832;12.882;2022-11-20T02:44:39;36.83;;;10.97;;
70715;SDS011;59053;50.832;12.882;2022-11-20T02:47:04;32.37;;;10.73;;
70715;SDS011;59053;50.832;12.882;2022-11-20T02:49:29;33.77;;;10.60;;
70715;SDS011;59053;50.832;12.882;2022-11-20T02:51:55;36.70;;;11.10;;
70715;SDS011;59053;50.832;12.882;2022-11-20T02:54:20;39.40;;;11.00;;
70715;SDS011;59053;50.832;12.882;2022-11-20T02:56:45;34.22;;;11.30;;
70715;SDS011;59053;50.832;12.882;2022-11-20T02:59:11;35.20;;;11.03;;
70715;SDS011;59053;50.832;12.882;2022-11-20T03:01:36;41.27;;;11.63;;
70715;SDS011;59053;50.832;12.882;2022-11-20T03:04:01;36.97;;;11.27;;
70715;SDS011;59053;50.832;12.882;2022-11-20T03:06:27;35.33;;;11.70;;
70715;SDS011;59053;50.832;12.882;2022-11-20T03:08:52;35.20;;;12.20;;
70715;SDS011;59053;50.832;12.882;2022-11-20T03:11:18;40.67;;;11.80;;
70715;SDS011;59053;50.832;12.882;2022-11-20T03:13:43;41.45;;;12.07;;
70715;SDS011;59053;50.832;12.882;2022-11-20T03:16:15;43.03;;;12.23;;
70715;SDS011;59053;50.832;12.882;2022-11-20T03:18:40;37.47;;;11.30;;
70715;SDS011;59053;50.832;12.882;2022-11-20T03:21:06;31.13;;;10.35;;
70715;SDS011;59053;50.832;12.882;2022-11-20T03:23:32;37.08;;;11.02;;
70715;SDS011;59053;50.832;12.882;2022-11-20T03:28:35;30.75;;;9.93;;
70715;SDS011;59053;50.832;12.882;2022-11-20T03:31:10;35.43;;;10.80;;
70715;SDS011;59053;50.832;12.882;2022-11-20T03:33:36;31.35;;;9.43;;
70715;SDS011;59053;50.832;12.882;2022-11-20T03:36:05;35.20;;;11.17;;
70715;SDS011;59053;50.832;12.882;2022-11-20T03:38:31;33.25;;;11.00;;
70715;SDS011;59053;50.832;12.882;2022-11-20T03:41:03;33.30;;;10.33;;
70715;SDS011;59053;50.832;12.882;2022-11-20T03:43:29;45.65;;;12.50;;
70715;SDS011;59053;50.832;12.882;2022-11-20T03:45:54;34.00;;;11.50;;
70715;SDS011;59053;50.832;12.882;2022-11-20T03:48:19;41.08;;;11.13;;
70715;SDS011;59053;50.832;12.882;2022-11-20T03:50:45;35.97;;;10.83;;
70715;SDS011;59053;50.832;12.882;2022-11-20T03:53:12;35.77;;;10.73;;
70715;SDS011;59053;50.832;12.882;2022-11-20T03:55:38;32.65;;;9.98;;
70715;SDS011;59053;50.832;12.882;2022-11-20T03:58:03;34.40;;;9.83;;
70715;SDS011;59053;50.832;12.882;2022-11-20T04:00:29;38.00;;;9.95;;
70715;SDS011;59053;50.832;12.882;2022-11-20T04:02:57;31.15;;;8.38;;
70715;SDS011;59053;50.832;12.882;2022-11-20T04:05:22;36.80;;;10.47;;
70715;SDS011;59053;50.832;12.882;2022-11-20T04:07:47;34.13;;;10.53;;
70715;SDS011;59053;50.832;12.882;2022-11-20T04:10:13;33.63;;;9.05;;
70715;SDS011;59053;50.832;12.882;2022-11-20T04:12:38;26.25;;;9.25;;
70715;SDS011;59053;50.832;12.882;2022-11-20T04:15:03;34.50;;;9.63;;
70715;SDS011;59053;50.832;12.882;2022-11-20T04:17:29;33.00;;;9.97;;
70715;SDS011;59053;50.832;12.882;2022-11-20T04:19:54;29.57;;;9.67;;
70715;SDS011;59053;50.832;12.882;2022-11-20T04:22:19;32.93;;;9.60;;
70715;SDS011;59053;50.832;12.882;2022-11-20T04:24:44;31.30;;;9.07;;
70715;SDS011;59053;50.832;12.882;2022-11-20T04:27:10;33.07;;;10.07;;
70715;SDS011;59053;50.832;12.882;2022-11-20T04:29:35;26.43;;;8.67;;
70715;SDS011;59053;50.832;12.882;2022-11-20T04:32:00;27.77;;;9.07;;
70715;SDS011;59053;50.832;12.882;2022-11-20T04:34:25;33.40;;;10.10;;
70715;SDS011;59053;50.832;12.882;2022-11-20T04:36:51;33.57;;;9.53;;
70715;SDS011;59053;50.832;12.882;2022-11-20T04:39:16;29.77;;;9.47;;
70715;SDS011;59053;50.832;12.882;2022-11-20T04:41:42;24.70;;;8.60;;
70715;SDS011;59053;50.832;12.882;2022-11-20T04:44:07;29.50;;;9.40;;
70715;SDS011;59053;50.832;12.882;2022-11-20T04:46:33;31.07;;;10.03;;
70715;SDS011;59053;50.832;12.882;2022-11-20T04:48:59;31.08;;;9.13;;
70715;SDS011;59053;50.832;12.882;2022-11-20T04:51:24;38.30;;;12.43;;
70715;SDS011;59053;50.832;12.882;2022-11-20T04:53:50;32.37;;;10.50;;
70715;SDS011;59053;50.832;12.882;2022-11-20T05:02:43;22.52;;;9.18;;
70715;SDS011;59053;50.832;12.882;2022-11-20T05:05:09;29.70;;;9.77;;
70715;SDS011;59053;50.832;12.882;2022-11-20T05:07:34;24.97;;;8.33;;
70715;SDS011;59053;50.832;12.882;2022-11-20T05:09:59;29.20;;;8.10;;
70715;SDS011;59053;50.832;12.882;2022-11-20T05:12:25;26.90;;;8.07;;
70715;SDS011;59053;50.832;12.882;2022-11-20T05:14:50;26.60;;;8.30;;
70715;SDS011;59053;50.832;12.882;2022-11-20T05:17:15;28.40;;;9.17;;
70715;SDS011;59053;50.832;12.882;2022-11-20T05:19:40;27.10;;;8.33;;
70715;SDS011;59053;50.832;12.882;2022-11-20T05:22:06;26.63;;;9.03;;
70715;SDS011;59053;50.832;12.882;2022-11-20T05:24:31;30.57;;;9.03;;
70715;SDS011;59053;50.832;12.882;2022-11-20T05:26:56;26.57;;;8.60;;
70715;SDS011;59053;50.832;12.882;2022-11-20T05:29:21;32.27;;;9.17;;
70715;SDS011;59053;50.832;12.882;2022-11-20T05:31:47;31.93;;;8.30;;
70715;SDS011;59053;50.832;12.882;2022-11-20T05:34:12;27.80;;;7.70;;
70715;SDS011;59053;50.832;12.882;2022-11-20T05:36:37;25.52;;;8.25;;
70715;SDS011;59053;50.832;12.882;2022-11-20T05:39:03;28.92;;;8.40;;
70715;SDS011;59053;50.832;12.882;2022-11-20T05:41:28;27.40;;;7.77;;
70715;SDS011;59053;50.832;12.882;2022-11-20T05:43:55;23.90;;;7.45;;
70715;SDS011;59053;50.832;12.882;2022-11-20T05:46:20;26.10;;;8.27;;
70715;SDS011;59053;50.832;12.882;2022-11-20T05:48:46;24.77;;;8.75;;
70715;SDS011;59053;50.832;12.882;2022-11-20T05:51:12;29.33;;;9.43;;
70715;SDS011;59053;50.832;12.882;2022-11-20T05:53:38;26.43;;;8.57;;
70715;SDS011;59053;50.832;12.882;2022-11-20T05:56:04;25.90;;;8.57;;
70715;SDS011;59053;50.832;12.882;2022-11-20T05:58:30;27.87;;;8.90;;
70715;SDS011;59053;50.832;12.882;2022-11-20T06:01:03;30.27;;;10.32;;
70715;SDS011;59053;50.832;12.882;2022-11-20T06:03:28;29.30;;;8.40;;
70715;SDS011;59053;50.832;12.882;2022-11-20T06:05:53;27.30;;;8.50;;
70715;SDS011;59053;50.832;12.882;2022-11-20T06:08:18;29.67;;;9.20;;
70715;SDS011;59053;50.832;12.882;2022-11-20T06:10:44;22.13;;;7.97;;
70715;SDS011;59053;50.832;12.882;2022-11-20T06:13:09;26.30;;;8.07;;
70715;SDS011;59053;50.832;12.882;2022-11-20T06:15:34;24.87;;;8.17;;
70715;SDS011;59053;50.832;12.882;2022-11-20T06:18:00;25.30;;;8.00;;
70715;SDS011;59053;50.832;12.882;2022-11-20T06:20:25;21.50;;;7.23;;
70715;SDS011;59053;50.832;12.882;2022-11-20T06:22:50;23.77;;;8.03;;
70715;SDS011;59053;50.832;12.882;2022-11-20T06:25:15;25.73;;;8.00;;
70715;SDS011;59053;50.832;12.882;2022-11-20T06:27:41;23.63;;;7.70;;
70715;SDS011;59053;50.832;12.882;2022-11-20T06:30:06;22.77;;;7.40;;
70715;SDS011;59053;50.832;12.882;2022-11-20T06:32:32;25.92;;;7.47;;
70715;SDS011;59053;50.832;12.882;2022-11-20T06:34:58;25.47;;;8.27;;
70715;SDS011;59053;50.832;12.882;2022-11-20T06:37:34;26.70;;;7.33;;
70715;SDS011;59053;50.832;12.882;2022-11-20T06:40:00;25.00;;;8.88;;
70715;SDS011;59053;50.832;12.882;2022-11-20T06:46:00;30.23;;;8.70;;
70715;SDS011;59053;50.832;12.882;2022-11-20T06:48:26;25.88;;;7.82;;
70715;SDS011;59053;50.832;12.882;2022-11-20T06:53:47;25.77;;;7.60;;
70715;SDS011;59053;50.832;12.882;2022-11-20T06:56:13;31.75;;;8.55;;
70715;SDS011;59053;50.832;12.882;2022-11-20T06:58:38;25.07;;;8.07;;
70715;SDS011;59053;50.832;12.882;2022-11-20T07:01:06;24.03;;;9.13;;
70715;SDS011;59053;50.832;12.882;2022-11-20T07:03:31;24.52;;;7.95;;
70715;SDS011;59053;50.832;12.882;2022-11-20T07:05:59;29.13;;;8.80;;
70715;SDS011;59053;50.832;12.882;2022-11-20T07:08:37;27.48;;;8.55;;
70715;SDS011;59053;50.832;12.882;2022-11-20T07:17:18;22.93;;;6.90;;
70715;SDS011;59053;50.832;12.882;2022-11-20T07:19:43;23.70;;;7.17;;
70715;SDS011;59053;50.832;12.882;2022-11-20T07:22:08;22.47;;;6.90;;
70715;SDS011;59053;50.832;12.882;2022-11-20T07:24:34;21.52;;;7.30;;
70715;SDS011;59053;50.832;12.882;2022-11-20T07:27:06;20.15;;;6.93;;
70715;SDS011;59053;50.832;12.882;2022-11-20T07:29:31;27.88;;;7.13;;
70715;SDS011;59053;50.832;12.882;2022-11-20T07:32:05;28.70;;;8.80;;
70715;SDS011;59053;50.832;12.882;2022-11-20T07:34:30;28.48;;;8.25;;
70715;SDS011;59053;50.832;12.882;2022-11-20T07:36:55;24.97;;;7.47;;
70715;SDS011;59053;50.832;12.882;2022-11-20T07:39:21;26.43;;;7.90;;
70715;SDS011;59053;50.832;12.882;2022-11-20T07:45:05;21.95;;;8.25;;
70715;SDS011;59053;50.832;12.882;2022-11-20T07:47:36;22.90;;;8.27;;
70715;SDS011;59053;50.832;12.882;2022-11-20T07:50:01;23.83;;;7.72;;
70715;SDS011;59053;50.832;12.882;2022-11-20T07:55:26;21.92;;;6.65;;
70715;SDS011;59053;50.832;12.882;2022-11-20T07:57:55;22.20;;;7.17;;
70715;SDS011;59053;50.832;12.882;2022-11-20T08:00:34;22.92;;;7.97;;
70715;SDS011;59053;50.832;12.882;2022-11-20T08:03:02;20.70;;;6.80;;
70715;SDS011;59053;50.832;12.882;2022-11-20T08:05:30;19.23;;;7.32;;
70715;SDS011;59053;50.832;12.882;2022-11-20T08:07:56;23.07;;;7.30;;
70715;SDS011;59053;50.832;12.882;2022-11-20T08:10:39;25.33;;;7.87;;
70715;SDS011;59053;50.832;12.882;2022-11-20T08:13:04;25.25;;;8.13;;
70715;SDS011;59053;50.832;12.882;2022-11-20T08:18:39;18.77;;;6.88;;
70715;SDS011;59053;50.832;12.882;2022-11-20T08:21:05;19.30;;;6.40;;
70715;SDS011;59053;50.832;12.882;2022-11-20T08:26:39;16.35;;;5.65;;
70715;SDS011;59053;50.832;12.882;2022-11-20T08:29:05;17.80;;;5.78;;
70715;SDS011;59053;50.832;12.882;2022-11-20T08:31:34;14.77;;;5.03;;
70715;SDS011;59053;50.832;12.882;2022-11-20T08:34:02;16.00;;;5.40;;
70715;SDS011;59053;50.832;12.882;2022-11-20T08:36:27;17.33;;;5.10;;
70715;SDS011;59053;50.832;12.882;2022-11-20T08:39:05;18.08;;;6.32;;
70715;SDS011;59053;50.832;12.882;2022-11-20T08:41:30;17.70;;;5.75;;
70715;SDS011;59053;50.832;12.882;2022-11-20T08:44:06;21.15;;;5.57;;
70715;SDS011;59053;50.832;12.882;2022-11-20T08:46:37;18.08;;;5.85;;
70715;SDS011;59053;50.832;12.882;2022-11-20T08:51:53;16.05;;;4.97;;
70715;SDS011;59053;50.832;12.882;2022-11-20T08:54:20;15.48;;;5.25;;
70715;SDS011;59053;50.832;12.882;2022-11-20T08:56:49;15.43;;;5.38;;
70715;SDS011;59053;50.832;12.882;2022-11-20T08:59:38;17.60;;;5.55;;
70715;SDS011;59053;50.832;12.882;2022-11-20T09:02:32;18.15;;;5.47;;
70715;SDS011;59053;50.832;12.882;2022-11-20T09:05:05;16.95;;;5.47;;
70715;SDS011;59053;50.832;12.882;2022-11-20T09:07:37;14.73;;;5.15;;
70715;SDS011;59053;50.832;12.882;2022-11-20T09:10:05;14.73;;;5.10;;
70715;SDS011;59053;50.832;12.882;2022-11-20T09:12:30;18.60;;;6.03;;
70715;SDS011;59053;50.832;12.882;2022-11-20T09:17:26;16.92;;;5.65;;
70715;SDS011;59053;50.832;12.882;2022-11-20T09:19:51;17.07;;;5.97;;
70715;SDS011;59053;50.832;12.882;2022-11-20T09:22:17;18.33;;;6.67;;
70715;SDS011;59053;50.832;12.882;2022-11-20T09:24:42;15.07;;;5.50;;
70715;SDS011;59053;50.832;12.882;2022-11-20T09:27:07;13.83;;;5.23;;
70715;SDS011;59053;50.832;12.882;2022-11-20T09:29:35;16.60;;;5.93;;
70715;SDS011;59053;50.832;12.882;2022-11-20T09:32:11;12.52;;;5.13;;
70715;SDS011;59053;50.832;12.882;2022-11-20T09:34:50;15.90;;;5.82;;
70715;SDS011;59053;50.832;12.882;2022-11-20T09:37:17;14.48;;;5.15;;
70715;SDS011;59053;50.832;12.882;2022-11-20T09:39:42;17.33;;;5.83;;
70715;SDS011;59053;50.832;12.882;2022-11-20T09:45:30;16.63;;;5.70;;
70715;SDS011;59053;50.832;12.882;2022-11-20T09:48:03;16.13;;;5.73;;
70715;SDS011;59053;50.832;12.882;2022-11-20T09:54:11;19.08;;;6.25;;
70715;SDS011;59053;50.832;12.882;2022-11-20T09:59:35;17.63;;;5.72;;
70715;SDS011;59053;50.832;12.882;2022-11-20T10:02:08;18.37;;;6.13;;
70715;SDS011;59053;50.832;12.882;2022-11-20T10:04:52;18.77;;;6.32;;
70715;SDS011;59053;50.832;12.882;2022-11-20T10:10:18;19.67;;;7.10;;
70715;SDS011;59053;50.832;12.882;2022-11-20T10:21:22;22.42;;;6.53;;
70715;SDS011;59053;50.832;12.882;2022-11-20T10:24:02;19.08;;;6.95;;
70715;SDS011;59053;50.832;12.882;2022-11-20T10:26:47;19.35;;;6.53;;
70715;SDS011;59053;50.832;12.882;2022-11-20T10:29:16;16.70;;;6.37;;
70715;SDS011;59053;50.832;12.882;2022-11-20T10:34:46;20.10;;;7.00;;
70715;SDS011;59053;50.832;12.882;2022-11-20T10:40:46;20.52;;;6.70;;
70715;SDS011;59053;50.832;12.882;2022-11-20T10:43:20;17.40;;;5.57;;
70715;SDS011;59053;50.832;12.882;2022-11-20T10:46:00;13.05;;;4.15;;
70715;SDS011;59053;50.832;12.882;2022-11-20T10:48:44;23.25;;;6.95;;
70715;SDS011;59053;50.832;12.882;2022-11-20T11:11:23;19.77;;;6.43;;
70715;SDS011;59053;50.832;12.882;2022-11-20T11:16:55;17.85;;;6.15;;
70715;SDS011;59053;50.832;12.882;2022-11-20T11:19:20;16.17;;;5.90;;
70715;SDS011;59053;50.832;12.882;2022-11-20T11:21:47;17.40;;;5.93;;
70715;SDS011;59053;50.832;12.882;2022-11-20T11:27:48;19.50;;;6.25;;
70715;SDS011;59053;50.832;12.882;2022-11-20T11:30:15;20.95;;;6.45;;
70715;SDS011;59053;50.832;12.882;2022-11-20T11:32:41;19.08;;;7.10;;
70715;SDS011;59053;50.832;12.882;2022-11-20T11:35:23;21.70;;;7.40;;
70715;SDS011;59053;50.832;12.882;2022-11-20T11:37:48;21.27;;;7.57;;
70715;SDS011;59053;50.832;12.882;2022-11-20T11:40:16;22.05;;;7.93;;
70715;SDS011;59053;50.832;12.882;2022-11-20T11:45:55;19.17;;;6.20;;
70715;SDS011;59053;50.832;12.882;2022-11-20T11:51:13;19.95;;;6.35;;
70715;SDS011;59053;50.832;12.882;2022-11-20T11:53:44;23.33;;;6.95;;
70715;SDS011;59053;50.832;12.882;2022-11-20T11:56:10;20.17;;;7.00;;
70715;SDS011;59053;50.832;12.882;2022-11-20T12:03:37;19.55;;;7.00;;
70715;SDS011;59053;50.832;12.882;2022-11-20T12:06:13;24.33;;;7.53;;
70715;SDS011;59053;50.832;12.882;2022-11-20T12:19:29;23.60;;;7.87;;
70715;SDS011;59053;50.832;12.882;2022-11-20T12:30:00;23.05;;;7.10;;
70715;SDS011;59053;50.832;12.882;2022-11-20T12:32:43;22.40;;;8.13;;
70715;SDS011;59053;50.832;12.882;2022-11-20T12:40:54;28.13;;;8.18;;
70715;SDS011;59053;50.832;12.882;2022-11-20T12:43:26;24.20;;;7.50;;
70715;SDS011;59053;50.832;12.882;2022-11-20T12:48:51;24.27;;;8.23;;
70715;SDS011;59053;50.832;12.882;2022-11-20T12:59:19;23.93;;;8.20;;
70715;SDS011;59053;50.832;12.882;2022-11-20T13:01:53;27.05;;;8.50;;
70715;SDS011;59053;50.832;12.882;2022-11-20T13:07:08;24.75;;;9.20;;
70715;SDS011;59053;50.832;12.882;2022-11-20T13:09:42;27.50;;;9.48;;
70715;SDS011;59053;50.832;12.882;2022-11-20T13:15:02;28.70;;;10.13;;
70715;SDS011;59053;50.832;12.882;2022-11-20T13:17:43;26.67;;;9.30;;
70715;SDS011;59053;50.832;12.882;2022-11-20T13:20:12;27.35;;;9.43;;
70715;SDS011;59053;50.832;12.882;2022-11-20T13:22:45;32.55;;;9.75;;
70715;SDS011;59053;50.832;12.882;2022-11-20T13:30:53;28.02;;;9.63;;
70715;SDS011;59053;50.832;12.882;2022-11-20T13:33:27;25.75;;;9.55;;
70715;SDS011;59053;50.832;12.882;2022-11-20T13:38:50;26.90;;;8.50;;
70715;SDS011;59053;50.832;12.882;2022-11-20T13:41:53;30.15;;;9.68;;
70715;SDS011;59053;50.832;12.882;2022-11-20T13:44:36;28.60;;;9.40;;
70715;SDS011;59053;50.832;12.882;2022-11-20T13:47:21;26.25;;;8.88;;
70715;SDS011;59053;50.832;12.882;2022-11-20T13:49:47;23.17;;;8.65;;
70715;SDS011;59053;50.832;12.882;2022-11-20T14:02:36;14.57;;;5.68;;
70715;SDS011;59053;50.832;12.882;2022-11-20T14:05:04;17.35;;;6.38;;
70715;SDS011;59053;50.832;12.882;2022-11-20T14:07:37;19.87;;;6.67;;
70715;SDS011;59053;50.832;12.882;2022-11-20T14:10:04;17.77;;;6.40;;
70715;SDS011;59053;50.832;12.882;2022-11-20T14:12:30;22.20;;;7.87;;
70715;SDS011;59053;50.832;12.882;2022-11-20T14:14:56;20.77;;;7.05;;
70715;SDS011;59053;50.832;12.882;2022-11-20T14:17:23;19.13;;;6.57;;
70715;SDS011;59053;50.832;12.882;2022-11-20T14:19:50;19.53;;;7.57;;
70715;SDS011;59053;50.832;12.882;2022-11-20T14:22:23;20.05;;;7.45;;
70715;SDS011;59053;50.832;12.882;2022-11-20T14:24:59;11.63;;;5.18;;
70715;SDS011;59053;50.832;12.882;2022-11-20T14:27:25;19.02;;;6.60;;
70715;SDS011;59053;50.832;12.882;2022-11-20T14:29:50;21.80;;;6.73;;
70715;SDS011;59053;50.832;12.882;2022-11-20T14:32:17;16.20;;;5.23;;
70715;SDS011;59053;50.832;12.882;2022-11-20T14:34:51;18.92;;;6.53;;
70715;SDS011;59053;50.832;12.882;2022-11-20T14:37:24;24.13;;;8.50;;
70715;SDS011;59053;50.832;12.882;2022-11-20T14:39:52;21.70;;;7.50;;
70715;SDS011;59053;50.832;12.882;2022-11-20T14:51:58;25.40;;;8.35;;
70715;SDS011;59053;50.832;12.882;2022-11-20T14:57:31;22.08;;;7.88;;
70715;SDS011;59053;50.832;12.882;2022-11-20T15:00:08;20.63;;;7.20;;
70715;SDS011;59053;50.832;12.882;2022-11-20T15:02:47;24.40;;;8.10;;
70715;SDS011;59053;50.832;12.882;2022-11-20T15:07:44;22.08;;;7.45;;
70715;SDS011;59053;50.832;12.882;2022-11-20T15:12:55;23.17;;;7.90;;
70715;SDS011;59053;50.832;12.882;2022-11-20T15:17:47;21.87;;;6.83;;
70715;SDS011;59053;50.832;12.882;2022-11-20T15:20:13;21.97;;;7.30;;
70715;SDS011;59053;50.832;12.882;2022-11-20T15:22:39;23.38;;;7.68;;
70715;SDS011;59053;50.832;12.882;2022-11-20T15:25:11;24.47;;;7.97;;
70715;SDS011;59053;50.832;12.882;2022-11-20T15:27:36;20.58;;;7.72;;
70715;SDS011;59053;50.832;12.882;2022-11-20T15:30:01;23.87;;;7.40;;
70715;SDS011;59053;50.832;12.882;2022-11-20T15:32:27;21.60;;;7.50;;
70715;SDS011;59053;50.832;12.882;2022-11-20T15:34:52;20.27;;;7.13;;
70715;SDS011;59053;50.832;12.882;2022-11-20T15:40:04;24.80;;;7.82;;
70715;SDS011;59053;50.832;12.882;2022-11-20T15:42:30;21.63;;;7.30;;
70715;SDS011;59053;50.832;12.882;2022-11-20T15:45:01;22.30;;;6.97;;
70715;SDS011;59053;50.832;12.882;2022-11-20T15:47:32;30.23;;;9.90;;
70715;SDS011;59053;50.832;12.882;2022-11-20T15:50:11;37.50;;;11.20;;
70715;SDS011;59053;50.832;12.882;2022-11-20T15:52:39;22.10;;;7.60;;
70715;SDS011;59053;50.832;12.882;2022-11-20T15:55:13;21.90;;;7.40;;
70715;SDS011;59053;50.832;12.882;2022-11-20T15:57:41;21.40;;;7.67;;
70715;SDS011;59053;50.832;12.882;2022-11-20T16:00:07;21.97;;;7.70;;
70715;SDS011;59053;50.832;12.882;2022-11-20T16:05:24;22.23;;;7.33;;
70715;SDS011;59053;50.832;12.882;2022-11-20T16:07:52;24.83;;;7.85;;
70715;SDS011;59053;50.832;12.882;2022-11-20T16:10:20;24.33;;;8.57;;
70715;SDS011;59053;50.832;12.882;2022-11-20T16:13:46;28.17;;;8.88;;
70715;SDS011;59053;50.832;12.882;2022-11-20T16:16:32;28.45;;;11.80;;
70715;SDS011;59053;50.832;12.882;2022-11-20T16:18:58;33.15;;;12.30;;
70715;SDS011;59053;50.832;12.882;2022-11-20T16:27:37;27.63;;;9.70;;
70715;SDS011;59053;50.832;12.882;2022-11-20T16:33:53;30.73;;;10.07;;
70715;SDS011;59053;50.832;12.882;2022-11-20T16:36:19;32.40;;;10.32;;
70715;SDS011;59053;50.832;12.882;2022-11-20T16:38:45;47.00;;;13.40;;
70715;SDS011;59053;50.832;12.882;2022-11-20T16:41:10;35.43;;;11.20;;
70715;SDS011;59053;50.832;12.882;2022-11-20T16:43:45;79.35;;;22.25;;
70715;SDS011;59053;50.832;12.882;2022-11-20T16:46:11;93.28;;;27.17;;
70715;SDS011;59053;50.832;12.882;2022-11-20T16:51:45;47.67;;;14.55;;
70715;SDS011;59053;50.832;12.882;2022-11-20T16:54:11;37.40;;;13.33;;
70715;SDS011;59053;50.832;12.882;2022-11-20T16:59:41;35.92;;;11.65;;
70715;SDS011;59053;50.832;12.882;2022-11-20T17:02:07;46.47;;;14.33;;
70715;SDS011;59053;50.832;12.882;2022-11-20T17:04:33;34.72;;;12.82;;
70715;SDS011;59053;50.832;12.882;2022-11-20T17:06:58;38.20;;;12.17;;
70715;SDS011;59053;50.832;12.882;2022-11-20T17:09:23;40.97;;;13.80;;
70715;SDS011;59053;50.832;12.882;2022-11-20T17:11:48;55.60;;;18.33;;
70715;SDS011;59053;50.832;12.882;2022-11-20T17:14:14;46.47;;;15.03;;
70715;SDS011;59053;50.832;12.882;2022-11-20T17:16:39;40.60;;;13.67;;
70715;SDS011;59053;50.832;12.882;2022-11-20T17:19:04;39.55;;;14.82;;
70715;SDS011;59053;50.832;12.882;2022-11-20T17:21:34;50.67;;;17.80;;
70715;SDS011;59053;50.832;12.882;2022-11-20T17:24:25;45.97;;;16.98;;
70715;SDS011;59053;50.832;12.882;2022-11-20T17:26:51;44.10;;;15.77;;
70715;SDS011;59053;50.832;12.882;2022-11-20T17:29:24;44.63;;;15.77;;
70715;SDS011;59053;50.832;12.882;2022-11-20T17:31:52;39.92;;;14.88;;
70715;SDS011;59053;50.832;12.882;2022-11-20T17:34:17;40.20;;;15.07;;
70715;SDS011;59053;50.832;12.882;2022-11-20T17:37:00;42.43;;;14.70;;
70715;SDS011;59053;50.832;12.882;2022-11-20T17:39:29;39.08;;;14.00;;
70715;SDS011;59053;50.832;12.882;2022-11-20T17:41:54;35.40;;;12.83;;
70715;SDS011;59053;50.832;12.882;2022-11-20T17:44:38;39.63;;;13.02;;
70715;SDS011;59053;50.832;12.882;2022-11-20T17:47:05;39.38;;;13.70;;
70715;SDS011;59053;50.832;12.882;2022-11-20T17:55:28;35.55;;;12.57;;
70715;SDS011;59053;50.832;12.882;2022-11-20T17:58:14;32.67;;;11.85;;
70715;SDS011;59053;50.832;12.882;2022-11-20T18:07:01;39.40;;;14.73;;
70715;SDS011;59053;50.832;12.882;2022-11-20T18:09:27;37.50;;;13.37;;
70715;SDS011;59053;50.832;12.882;2022-11-20T18:11:54;37.00;;;11.88;;
70715;SDS011;59053;50.832;12.882;2022-11-20T18:14:19;42.90;;;13.30;;
70715;SDS011;59053;50.832;12.882;2022-11-20T18:16:54;36.63;;;12.00;;
70715;SDS011;59053;50.832;12.882;2022-11-20T18:19:22;43.30;;;14.57;;